sensor_id;sensor_type;location;lat;lon;timestamp;temperature;humidity
13426;DHT22;6785;57.918;12.530;2023-07-08T00:00:10;13.50;99.90
13426;DHT22;6785;57.918;12.530;2023-07-08T00:02:40;13.40;99.90
13426;DHT22;6785;57.918;12.530;2023-07-08T00:05:08;13.40;99.90
13426;DHT22;6785;57.918;12.530;2023-07-08T00:07:35;13.40;99.90
13426;DHT22;6785;57.918;12.530;2023-07-08T00:10:05;13.40;99.90
13426;DHT22;6785;57.918;12.530;2023-07-08T00:12:36;13.40;99.90
13426;DHT22;6785;57.918;12.530;2023-07-08T00:15:06;13.40;99.90
13426;DHT22;6785;57.918;12.530;2023-07-08T00:17:33;13.30;99.90
13426;DHT22;6785;57.918;12.530;2023-07-08T00:19:59;13.30;99.90
13426;DHT22;6785;57.918;12.530;2023-07-08T00:22:26;13.30;99.90
13426;DHT22;6785;57.918;12.530;2023-07-08T00:24:53;13.30;99.90
13426;DHT22;6785;57.918;12.530;2023-07-08T00:27:20;13.30;99.90
13426;DHT22;6785;57.918;12.530;2023-07-08T00:29:47;13.30;99.90
13426;DHT22;6785;57.918;12.530;2023-07-08T00:32:16;13.30;99.90
13426;DHT22;6785;57.918;12.530;2023-07-08T00:34:43;13.30;99.90
13426;DHT22;6785;57.918;12.530;2023-07-08T00:37:11;13.30;99.90
13426;DHT22;6785;57.918;12.530;2023-07-08T00:39:38;13.30;99.90
13426;DHT22;6785;57.918;12.530;2023-07-08T00:42:14;13.30;99.90
13426;DHT22;6785;57.918;12.530;2023-07-08T00:44:43;13.30;99.90
13426;DHT22;6785;57.918;12.530;2023-07-08T00:47:12;13.30;99.90
13426;DHT22;6785;57.918;12.530;2023-07-08T00:49:43;13.30;99.90
13426;DHT22;6785;57.918;12.530;2023-07-08T00:52:20;13.40;99.90
13426;DHT22;6785;57.918;12.530;2023-07-08T00:54:49;13.30;99.90
13426;DHT22;6785;57.918;12.530;2023-07-08T00:57:17;13.30;99.90
13426;DHT22;6785;57.918;12.530;2023-07-08T00:59:47;13.30;99.90
13426;DHT22;6785;57.918;12.530;2023-07-08T01:02:16;13.20;99.90
13426;DHT22;6785;57.918;12.530;2023-07-08T01:04:49;13.20;99.90
13426;DHT22;6785;57.918;12.530;2023-07-08T01:07:17;13.10;99.90
13426;DHT22;6785;57.918;12.530;2023-07-08T01:09:48;13.20;99.90
13426;DHT22;6785;57.918;12.530;2023-07-08T01:12:19;13.10;99.90
13426;DHT22;6785;57.918;12.530;2023-07-08T01:14:49;13.20;99.90
13426;DHT22;6785;57.918;12.530;2023-07-08T01:17:18;13.10;99.90
13426;DHT22;6785;57.918;12.530;2023-07-08T01:19:46;13.10;99.90
13426;DHT22;6785;57.918;12.530;2023-07-08T01:22:14;13.10;99.90
13426;DHT22;6785;57.918;12.530;2023-07-08T01:24:42;13.10;99.90
13426;DHT22;6785;57.918;12.530;2023-07-08T01:27:12;13.10;99.90
13426;DHT22;6785;57.918;12.530;2023-07-08T01:29:39;13.10;99.90
13426;DHT22;6785;57.918;12.530;2023-07-08T01:32:09;13.10;99.90
13426;DHT22;6785;57.918;12.530;2023-07-08T01:34:43;13.10;99.90
13426;DHT22;6785;57.918;12.530;2023-07-08T01:37:19;13.10;99.90
13426;DHT22;6785;57.918;12.530;2023-07-08T01:39:46;13.10;99.90
13426;DHT22;6785;57.918;12.530;2023-07-08T01:42:14;13.00;99.90
13426;DHT22;6785;57.918;12.530;2023-07-08T01:44:41;13.10;99.90
13426;DHT22;6785;57.918;12.530;2023-07-08T01:47:11;13.00;99.90
13426;DHT22;6785;57.918;12.530;2023-07-08T01:49:41;13.00;99.90
13426;DHT22;6785;57.918;12.530;2023-07-08T01:52:10;13.00;99.90
13426;DHT22;6785;57.918;12.530;2023-07-08T01:54:39;13.00;99.90
13426;DHT22;6785;57.918;12.530;2023-07-08T01:57:06;13.00;99.90
13426;DHT22;6785;57.918;12.530;2023-07-08T01:59:33;12.90;99.90
13426;DHT22;6785;57.918;12.530;2023-07-08T02:02:00;13.00;99.90
13426;DHT22;6785;57.918;12.530;2023-07-08T02:04:27;13.00;99.90
13426;DHT22;6785;57.918;12.530;2023-07-08T02:06:58;13.00;99.90
13426;DHT22;6785;57.918;12.530;2023-07-08T02:09:25;13.10;99.90
13426;DHT22;6785;57.918;12.530;2023-07-08T02:11:53;13.10;99.90
13426;DHT22;6785;57.918;12.530;2023-07-08T02:14:20;13.00;99.90
13426;DHT22;6785;57.918;12.530;2023-07-08T02:16:47;13.00;99.90
13426;DHT22;6785;57.918;12.530;2023-07-08T02:19:14;13.00;99.90
13426;DHT22;6785;57.918;12.530;2023-07-08T02:21:41;13.00;99.90
13426;DHT22;6785;57.918;12.530;2023-07-08T02:24:08;13.00;99.90
13426;DHT22;6785;57.918;12.530;2023-07-08T02:26:35;13.00;99.90
13426;DHT22;6785;57.918;12.530;2023-07-08T02:29:03;12.90;99.90
13426;DHT22;6785;57.918;12.530;2023-07-08T02:31:30;13.00;99.90
13426;DHT22;6785;57.918;12.530;2023-07-08T02:33:56;13.00;99.90
13426;DHT22;6785;57.918;12.530;2023-07-08T02:36:23;13.00;99.90
13426;DHT22;6785;57.918;12.530;2023-07-08T02:38:50;13.00;99.90
13426;DHT22;6785;57.918;12.530;2023-07-08T02:41:17;13.00;99.90
13426;DHT22;6785;57.918;12.530;2023-07-08T02:43:44;13.00;99.90
13426;DHT22;6785;57.918;12.530;2023-07-08T02:46:12;13.10;99.90
13426;DHT22;6785;57.918;12.530;2023-07-08T02:48:39;13.10;99.90
13426;DHT22;6785;57.918;12.530;2023-07-08T02:51:06;13.10;99.90
13426;DHT22;6785;57.918;12.530;2023-07-08T02:53:35;13.10;99.90
13426;DHT22;6785;57.918;12.530;2023-07-08T02:56:01;13.10;99.90
13426;DHT22;6785;57.918;12.530;2023-07-08T02:58:28;13.10;99.90
13426;DHT22;6785;57.918;12.530;2023-07-08T03:00:56;13.10;99.90
13426;DHT22;6785;57.918;12.530;2023-07-08T03:03:25;13.10;99.90
13426;DHT22;6785;57.918;12.530;2023-07-08T03:05:55;13.00;99.90
13426;DHT22;6785;57.918;12.530;2023-07-08T03:08:22;13.00;99.90
13426;DHT22;6785;57.918;12.530;2023-07-08T03:10:55;13.00;99.90
13426;DHT22;6785;57.918;12.530;2023-07-08T03:13:22;13.10;99.90
13426;DHT22;6785;57.918;12.530;2023-07-08T03:15:49;13.10;99.90
13426;DHT22;6785;57.918;12.530;2023-07-08T03:18:16;13.10;99.90
13426;DHT22;6785;57.918;12.530;2023-07-08T03:20:44;13.20;99.90
13426;DHT22;6785;57.918;12.530;2023-07-08T03:23:12;13.20;99.90
13426;DHT22;6785;57.918;12.530;2023-07-08T03:25:38;13.20;99.90
13426;DHT22;6785;57.918;12.530;2023-07-08T03:28:05;13.30;99.90
13426;DHT22;6785;57.918;12.530;2023-07-08T03:30:33;13.30;99.90
13426;DHT22;6785;57.918;12.530;2023-07-08T03:33:00;13.30;99.90
13426;DHT22;6785;57.918;12.530;2023-07-08T03:35:27;13.30;99.90
13426;DHT22;6785;57.918;12.530;2023-07-08T03:37:55;13.40;99.90
13426;DHT22;6785;57.918;12.530;2023-07-08T03:40:22;13.40;99.90
13426;DHT22;6785;57.918;12.530;2023-07-08T03:42:48;13.50;99.90
13426;DHT22;6785;57.918;12.530;2023-07-08T03:45:15;13.60;99.90
13426;DHT22;6785;57.918;12.530;2023-07-08T03:47:42;13.70;99.90
13426;DHT22;6785;57.918;12.530;2023-07-08T03:50:16;13.70;99.90
13426;DHT22;6785;57.918;12.530;2023-07-08T03:52:44;13.80;99.90
13426;DHT22;6785;57.918;12.530;2023-07-08T03:55:13;13.90;99.90
13426;DHT22;6785;57.918;12.530;2023-07-08T03:57:40;14.00;99.90
13426;DHT22;6785;57.918;12.530;2023-07-08T04:00:08;14.10;99.90
13426;DHT22;6785;57.918;12.530;2023-07-08T04:02:37;14.30;99.90
13426;DHT22;6785;57.918;12.530;2023-07-08T04:05:05;14.50;99.90
13426;DHT22;6785;57.918;12.530;2023-07-08T04:07:32;14.60;99.90
13426;DHT22;6785;57.918;12.530;2023-07-08T04:09:58;14.70;99.90
13426;DHT22;6785;57.918;12.530;2023-07-08T04:12:29;14.80;99.90
13426;DHT22;6785;57.918;12.530;2023-07-08T04:14:56;15.00;99.90
13426;DHT22;6785;57.918;12.530;2023-07-08T04:17:23;15.10;99.90
13426;DHT22;6785;57.918;12.530;2023-07-08T04:19:50;15.20;99.90
13426;DHT22;6785;57.918;12.530;2023-07-08T04:22:19;15.30;99.90
13426;DHT22;6785;57.918;12.530;2023-07-08T04:24:46;15.40;99.90
13426;DHT22;6785;57.918;12.530;2023-07-08T04:27:14;15.50;99.90
13426;DHT22;6785;57.918;12.530;2023-07-08T04:29:44;15.60;99.90
13426;DHT22;6785;57.918;12.530;2023-07-08T04:32:10;15.60;99.90
13426;DHT22;6785;57.918;12.530;2023-07-08T04:34:39;15.60;99.90
13426;DHT22;6785;57.918;12.530;2023-07-08T04:37:06;15.60;99.90
13426;DHT22;6785;57.918;12.530;2023-07-08T04:39:32;15.60;99.90
13426;DHT22;6785;57.918;12.530;2023-07-08T04:41:59;15.60;99.90
13426;DHT22;6785;57.918;12.530;2023-07-08T04:44:26;15.60;99.90
13426;DHT22;6785;57.918;12.530;2023-07-08T04:46:55;15.70;99.90
13426;DHT22;6785;57.918;12.530;2023-07-08T04:49:23;15.70;99.90
13426;DHT22;6785;57.918;12.530;2023-07-08T04:51:57;15.80;99.90
13426;DHT22;6785;57.918;12.530;2023-07-08T04:54:24;15.80;99.90
13426;DHT22;6785;57.918;12.530;2023-07-08T04:56:51;15.80;99.90
13426;DHT22;6785;57.918;12.530;2023-07-08T04:59:22;15.90;99.90
13426;DHT22;6785;57.918;12.530;2023-07-08T05:01:49;16.00;99.90
13426;DHT22;6785;57.918;12.530;2023-07-08T05:04:20;16.00;99.90
13426;DHT22;6785;57.918;12.530;2023-07-08T05:06:50;16.00;99.90
13426;DHT22;6785;57.918;12.530;2023-07-08T05:09:17;16.00;99.90
13426;DHT22;6785;57.918;12.530;2023-07-08T05:11:47;16.00;99.90
13426;DHT22;6785;57.918;12.530;2023-07-08T05:14:14;16.00;99.90
13426;DHT22;6785;57.918;12.530;2023-07-08T05:16:41;16.00;99.90
13426;DHT22;6785;57.918;12.530;2023-07-08T05:19:08;16.00;99.90
13426;DHT22;6785;57.918;12.530;2023-07-08T05:21:37;16.00;99.90
13426;DHT22;6785;57.918;12.530;2023-07-08T05:24:05;16.00;99.90
13426;DHT22;6785;57.918;12.530;2023-07-08T05:26:32;16.00;99.90
13426;DHT22;6785;57.918;12.530;2023-07-08T05:28:59;16.10;99.90
13426;DHT22;6785;57.918;12.530;2023-07-08T05:31:26;16.30;99.90
13426;DHT22;6785;57.918;12.530;2023-07-08T05:33:53;16.40;99.90
13426;DHT22;6785;57.918;12.530;2023-07-08T05:36:21;16.60;99.90
13426;DHT22;6785;57.918;12.530;2023-07-08T05:38:49;16.70;99.90
13426;DHT22;6785;57.918;12.530;2023-07-08T05:41:16;16.80;99.90
13426;DHT22;6785;57.918;12.530;2023-07-08T05:43:43;16.90;99.90
13426;DHT22;6785;57.918;12.530;2023-07-08T05:46:10;16.80;99.90
13426;DHT22;6785;57.918;12.530;2023-07-08T05:48:37;16.70;99.90
13426;DHT22;6785;57.918;12.530;2023-07-08T05:51:03;16.70;99.90
13426;DHT22;6785;57.918;12.530;2023-07-08T05:53:30;16.70;99.90
13426;DHT22;6785;57.918;12.530;2023-07-08T05:55:58;16.70;99.90
13426;DHT22;6785;57.918;12.530;2023-07-08T05:58:25;16.70;99.90
13426;DHT22;6785;57.918;12.530;2023-07-08T06:00:55;16.70;99.90
13426;DHT22;6785;57.918;12.530;2023-07-08T06:03:23;16.70;99.90
13426;DHT22;6785;57.918;12.530;2023-07-08T06:05:50;16.80;99.90
13426;DHT22;6785;57.918;12.530;2023-07-08T06:08:16;16.80;99.90
13426;DHT22;6785;57.918;12.530;2023-07-08T06:10:44;16.90;99.90
13426;DHT22;6785;57.918;12.530;2023-07-08T06:13:12;16.90;99.90
13426;DHT22;6785;57.918;12.530;2023-07-08T06:15:41;17.10;99.90
13426;DHT22;6785;57.918;12.530;2023-07-08T06:18:08;17.30;99.90
13426;DHT22;6785;57.918;12.530;2023-07-08T06:20:35;17.50;99.90
13426;DHT22;6785;57.918;12.530;2023-07-08T06:23:01;17.70;99.90
13426;DHT22;6785;57.918;12.530;2023-07-08T06:25:28;18.00;99.90
13426;DHT22;6785;57.918;12.530;2023-07-08T06:27:55;17.80;99.90
13426;DHT22;6785;57.918;12.530;2023-07-08T06:30:23;18.00;99.90
13426;DHT22;6785;57.918;12.530;2023-07-08T06:32:50;18.00;99.90
13426;DHT22;6785;57.918;12.530;2023-07-08T06:35:16;18.30;99.90
13426;DHT22;6785;57.918;12.530;2023-07-08T06:37:43;18.70;99.90
13426;DHT22;6785;57.918;12.530;2023-07-08T06:40:11;18.80;99.90
13426;DHT22;6785;57.918;12.530;2023-07-08T06:42:38;19.00;99.90
13426;DHT22;6785;57.918;12.530;2023-07-08T06:45:05;19.20;99.90
13426;DHT22;6785;57.918;12.530;2023-07-08T06:47:33;19.20;99.90
13426;DHT22;6785;57.918;12.530;2023-07-08T06:50:00;19.20;99.90
13426;DHT22;6785;57.918;12.530;2023-07-08T06:52:27;19.40;99.90
13426;DHT22;6785;57.918;12.530;2023-07-08T06:54:59;19.70;99.90
13426;DHT22;6785;57.918;12.530;2023-07-08T06:57:26;19.80;99.90
13426;DHT22;6785;57.918;12.530;2023-07-08T06:59:53;19.80;99.90
13426;DHT22;6785;57.918;12.530;2023-07-08T07:02:19;20.00;99.90
13426;DHT22;6785;57.918;12.530;2023-07-08T07:04:47;20.30;99.90
13426;DHT22;6785;57.918;12.530;2023-07-08T07:07:14;20.60;99.90
13426;DHT22;6785;57.918;12.530;2023-07-08T07:09:41;20.70;99.90
13426;DHT22;6785;57.918;12.530;2023-07-08T07:12:08;20.90;99.90
13426;DHT22;6785;57.918;12.530;2023-07-08T07:14:35;21.00;99.90
13426;DHT22;6785;57.918;12.530;2023-07-08T07:17:02;21.10;99.90
13426;DHT22;6785;57.918;12.530;2023-07-08T07:19:28;21.30;99.90
13426;DHT22;6785;57.918;12.530;2023-07-08T07:21:56;21.20;99.90
13426;DHT22;6785;57.918;12.530;2023-07-08T07:24:23;21.20;99.90
13426;DHT22;6785;57.918;12.530;2023-07-08T07:26:50;21.00;99.90
13426;DHT22;6785;57.918;12.530;2023-07-08T07:29:17;21.20;99.90
13426;DHT22;6785;57.918;12.530;2023-07-08T07:31:47;21.30;99.90
13426;DHT22;6785;57.918;12.530;2023-07-08T07:34:14;21.40;99.90
13426;DHT22;6785;57.918;12.530;2023-07-08T07:36:41;21.50;99.90
13426;DHT22;6785;57.918;12.530;2023-07-08T07:39:09;21.60;99.90
13426;DHT22;6785;57.918;12.530;2023-07-08T07:41:36;21.70;99.90
13426;DHT22;6785;57.918;12.530;2023-07-08T07:44:03;21.70;99.90
13426;DHT22;6785;57.918;12.530;2023-07-08T07:46:30;22.00;99.90
13426;DHT22;6785;57.918;12.530;2023-07-08T07:48:57;21.90;99.90
13426;DHT22;6785;57.918;12.530;2023-07-08T07:51:23;21.90;99.90
13426;DHT22;6785;57.918;12.530;2023-07-08T07:53:50;21.90;99.90
13426;DHT22;6785;57.918;12.530;2023-07-08T07:56:18;22.20;99.90
13426;DHT22;6785;57.918;12.530;2023-07-08T07:58:45;22.20;99.90
13426;DHT22;6785;57.918;12.530;2023-07-08T08:01:11;22.30;99.90
13426;DHT22;6785;57.918;12.530;2023-07-08T08:03:38;22.40;99.90
13426;DHT22;6785;57.918;12.530;2023-07-08T08:06:05;22.60;99.90
13426;DHT22;6785;57.918;12.530;2023-07-08T08:08:32;22.80;99.90
13426;DHT22;6785;57.918;12.530;2023-07-08T08:10:59;22.70;99.90
13426;DHT22;6785;57.918;12.530;2023-07-08T08:13:27;22.80;99.90
13426;DHT22;6785;57.918;12.530;2023-07-08T08:15:56;22.90;99.90
13426;DHT22;6785;57.918;12.530;2023-07-08T08:18:23;23.00;99.90
13426;DHT22;6785;57.918;12.530;2023-07-08T08:20:52;23.30;99.90
13426;DHT22;6785;57.918;12.530;2023-07-08T08:23:18;23.50;99.90
13426;DHT22;6785;57.918;12.530;2023-07-08T08:25:45;23.50;99.90
13426;DHT22;6785;57.918;12.530;2023-07-08T08:28:12;23.50;99.90
13426;DHT22;6785;57.918;12.530;2023-07-08T08:30:40;23.70;99.90
13426;DHT22;6785;57.918;12.530;2023-07-08T08:33:07;23.80;99.90
13426;DHT22;6785;57.918;12.530;2023-07-08T08:35:34;23.80;99.90
13426;DHT22;6785;57.918;12.530;2023-07-08T08:38:01;23.90;99.90
13426;DHT22;6785;57.918;12.530;2023-07-08T08:40:31;24.00;99.90
13426;DHT22;6785;57.918;12.530;2023-07-08T08:43:01;24.10;99.90
13426;DHT22;6785;57.918;12.530;2023-07-08T08:45:32;24.10;99.90
13426;DHT22;6785;57.918;12.530;2023-07-08T08:48:04;23.90;99.90
13426;DHT22;6785;57.918;12.530;2023-07-08T08:50:36;23.60;99.90
13426;DHT22;6785;57.918;12.530;2023-07-08T08:53:12;23.70;99.90
13426;DHT22;6785;57.918;12.530;2023-07-08T08:55:40;23.80;99.90
13426;DHT22;6785;57.918;12.530;2023-07-08T08:58:17;23.80;99.90
13426;DHT22;6785;57.918;12.530;2023-07-08T09:00:53;23.90;99.90
13426;DHT22;6785;57.918;12.530;2023-07-08T09:03:37;23.80;99.90
13426;DHT22;6785;57.918;12.530;2023-07-08T09:06:11;23.80;99.90
13426;DHT22;6785;57.918;12.530;2023-07-08T09:08:38;23.80;99.90
13426;DHT22;6785;57.918;12.530;2023-07-08T09:11:14;23.70;99.90
13426;DHT22;6785;57.918;12.530;2023-07-08T09:13:43;23.60;99.90
13426;DHT22;6785;57.918;12.530;2023-07-08T09:16:18;23.40;99.90
13426;DHT22;6785;57.918;12.530;2023-07-08T09:18:59;23.10;99.90
13426;DHT22;6785;57.918;12.530;2023-07-08T09:21:33;23.20;99.90
13426;DHT22;6785;57.918;12.530;2023-07-08T09:24:10;23.30;99.90
13426;DHT22;6785;57.918;12.530;2023-07-08T09:26:40;23.50;99.90
13426;DHT22;6785;57.918;12.530;2023-07-08T09:29:09;23.50;99.90
13426;DHT22;6785;57.918;12.530;2023-07-08T09:31:39;23.20;99.90
13426;DHT22;6785;57.918;12.530;2023-07-08T09:34:11;23.10;99.90
13426;DHT22;6785;57.918;12.530;2023-07-08T09:36:41;23.10;99.90
13426;DHT22;6785;57.918;12.530;2023-07-08T09:39:12;23.20;99.90
13426;DHT22;6785;57.918;12.530;2023-07-08T09:41:41;23.30;99.90
13426;DHT22;6785;57.918;12.530;2023-07-08T09:44:18;23.00;99.90
13426;DHT22;6785;57.918;12.530;2023-07-08T09:46:49;22.80;99.90
13426;DHT22;6785;57.918;12.530;2023-07-08T09:49:20;22.60;99.90
13426;DHT22;6785;57.918;12.530;2023-07-08T09:51:48;22.60;99.90
13426;DHT22;6785;57.918;12.530;2023-07-08T09:54:17;22.70;99.90
13426;DHT22;6785;57.918;12.530;2023-07-08T09:56:54;22.90;99.90
13426;DHT22;6785;57.918;12.530;2023-07-08T09:59:29;22.90;99.90
13426;DHT22;6785;57.918;12.530;2023-07-08T10:01:59;23.00;99.90
13426;DHT22;6785;57.918;12.530;2023-07-08T10:04:28;23.10;99.90
13426;DHT22;6785;57.918;12.530;2023-07-08T10:06:55;22.70;99.90
13426;DHT22;6785;57.918;12.530;2023-07-08T10:09:24;22.80;99.90
13426;DHT22;6785;57.918;12.530;2023-07-08T10:11:56;22.90;99.90
13426;DHT22;6785;57.918;12.530;2023-07-08T10:14:27;23.20;99.90
13426;DHT22;6785;57.918;12.530;2023-07-08T10:16:55;23.30;99.90
13426;DHT22;6785;57.918;12.530;2023-07-08T10:19:22;23.40;99.90
13426;DHT22;6785;57.918;12.530;2023-07-08T10:21:59;23.50;99.90
13426;DHT22;6785;57.918;12.530;2023-07-08T10:24:49;23.50;99.90
13426;DHT22;6785;57.918;12.530;2023-07-08T10:27:25;23.40;99.90
13426;DHT22;6785;57.918;12.530;2023-07-08T10:29:58;23.20;99.90
13426;DHT22;6785;57.918;12.530;2023-07-08T10:32:39;23.10;99.90
13426;DHT22;6785;57.918;12.530;2023-07-08T10:35:16;23.00;99.90
13426;DHT22;6785;57.918;12.530;2023-07-08T10:38:03;22.80;99.90
13426;DHT22;6785;57.918;12.530;2023-07-08T10:43:51;22.90;99.90
13426;DHT22;6785;57.918;12.530;2023-07-08T10:46:34;23.00;99.90
13426;DHT22;6785;57.918;12.530;2023-07-08T10:49:26;23.00;99.90
13426;DHT22;6785;57.918;12.530;2023-07-08T10:52:04;22.90;99.90
13426;DHT22;6785;57.918;12.530;2023-07-08T10:54:49;22.90;99.90
13426;DHT22;6785;57.918;12.530;2023-07-08T10:57:42;23.10;99.90
13426;DHT22;6785;57.918;12.530;2023-07-08T11:00:23;23.10;99.90
13426;DHT22;6785;57.918;12.530;2023-07-08T11:03:15;23.30;99.90
13426;DHT22;6785;57.918;12.530;2023-07-08T11:05:55;23.30;99.90
13426;DHT22;6785;57.918;12.530;2023-07-08T11:08:29;23.20;99.90
13426;DHT22;6785;57.918;12.530;2023-07-08T11:11:05;23.20;99.90
13426;DHT22;6785;57.918;12.530;2023-07-08T11:13:36;23.10;99.90
13426;DHT22;6785;57.918;12.530;2023-07-08T11:16:14;23.10;99.90
13426;DHT22;6785;57.918;12.530;2023-07-08T11:18:47;23.00;99.90
13426;DHT22;6785;57.918;12.530;2023-07-08T11:21:19;23.00;99.90
13426;DHT22;6785;57.918;12.530;2023-07-08T11:23:52;23.10;99.90
13426;DHT22;6785;57.918;12.530;2023-07-08T11:26:28;23.00;99.90
13426;DHT22;6785;57.918;12.530;2023-07-08T11:28:58;23.10;99.90
13426;DHT22;6785;57.918;12.530;2023-07-08T11:31:30;23.20;99.90
13426;DHT22;6785;57.918;12.530;2023-07-08T11:33:59;23.30;99.90
13426;DHT22;6785;57.918;12.530;2023-07-08T11:36:27;23.40;99.90
13426;DHT22;6785;57.918;12.530;2023-07-08T11:38:56;23.30;99.90
13426;DHT22;6785;57.918;12.530;2023-07-08T11:41:26;23.40;99.90
13426;DHT22;6785;57.918;12.530;2023-07-08T11:43:57;23.40;99.90
13426;DHT22;6785;57.918;12.530;2023-07-08T11:46:26;23.40;99.90
13426;DHT22;6785;57.918;12.530;2023-07-08T11:48:57;23.40;99.90
13426;DHT22;6785;57.918;12.530;2023-07-08T11:51:29;23.50;99.90
13426;DHT22;6785;57.918;12.530;2023-07-08T11:54:01;23.50;99.90
13426;DHT22;6785;57.918;12.530;2023-07-08T11:56:47;23.70;99.90
13426;DHT22;6785;57.918;12.530;2023-07-08T11:59:17;23.70;99.90
13426;DHT22;6785;57.918;12.530;2023-07-08T12:02:00;23.60;99.90
13426;DHT22;6785;57.918;12.530;2023-07-08T12:04:30;23.70;99.90
13426;DHT22;6785;57.918;12.530;2023-07-08T12:07:10;23.80;99.90
13426;DHT22;6785;57.918;12.530;2023-07-08T12:09:39;23.80;99.90
13426;DHT22;6785;57.918;12.530;2023-07-08T12:12:16;23.70;99.90
13426;DHT22;6785;57.918;12.530;2023-07-08T12:14:43;23.80;99.90
13426;DHT22;6785;57.918;12.530;2023-07-08T12:17:13;24.00;99.90
13426;DHT22;6785;57.918;12.530;2023-07-08T12:19:43;24.00;99.90
13426;DHT22;6785;57.918;12.530;2023-07-08T12:22:10;24.00;99.90
13426;DHT22;6785;57.918;12.530;2023-07-08T12:24:41;24.00;99.90
13426;DHT22;6785;57.918;12.530;2023-07-08T12:27:09;24.00;99.90
13426;DHT22;6785;57.918;12.530;2023-07-08T12:29:39;23.90;99.90
13426;DHT22;6785;57.918;12.530;2023-07-08T12:32:10;23.90;99.90
13426;DHT22;6785;57.918;12.530;2023-07-08T12:34:39;23.90;99.90
13426;DHT22;6785;57.918;12.530;2023-07-08T12:37:10;23.90;99.90
13426;DHT22;6785;57.918;12.530;2023-07-08T12:39:38;23.90;99.90
13426;DHT22;6785;57.918;12.530;2023-07-08T12:42:09;24.10;99.90
13426;DHT22;6785;57.918;12.530;2023-07-08T12:44:38;24.10;99.90
13426;DHT22;6785;57.918;12.530;2023-07-08T12:47:08;24.10;99.90
13426;DHT22;6785;57.918;12.530;2023-07-08T12:49:35;24.00;99.90
13426;DHT22;6785;57.918;12.530;2023-07-08T12:52:01;23.90;99.90
13426;DHT22;6785;57.918;12.530;2023-07-08T12:54:28;23.90;99.90
13426;DHT22;6785;57.918;12.530;2023-07-08T12:56:55;24.00;99.90
13426;DHT22;6785;57.918;12.530;2023-07-08T12:59:24;23.90;99.90
13426;DHT22;6785;57.918;12.530;2023-07-08T13:01:53;24.00;99.90
13426;DHT22;6785;57.918;12.530;2023-07-08T13:04:20;24.00;99.90
13426;DHT22;6785;57.918;12.530;2023-07-08T13:06:50;24.10;99.90
13426;DHT22;6785;57.918;12.530;2023-07-08T13:09:37;24.20;99.90
13426;DHT22;6785;57.918;12.530;2023-07-08T13:12:14;24.10;99.90
13426;DHT22;6785;57.918;12.530;2023-07-08T13:14:43;24.10;99.90
13426;DHT22;6785;57.918;12.530;2023-07-08T13:17:13;24.10;99.90
13426;DHT22;6785;57.918;12.530;2023-07-08T13:19:45;24.20;99.90
13426;DHT22;6785;57.918;12.530;2023-07-08T13:22:16;24.20;99.90
13426;DHT22;6785;57.918;12.530;2023-07-08T13:24:48;24.40;99.90
13426;DHT22;6785;57.918;12.530;2023-07-08T13:27:21;24.40;99.90
13426;DHT22;6785;57.918;12.530;2023-07-08T13:29:48;24.50;99.90
13426;DHT22;6785;57.918;12.530;2023-07-08T13:32:18;24.60;99.90
13426;DHT22;6785;57.918;12.530;2023-07-08T13:34:48;24.70;99.90
13426;DHT22;6785;57.918;12.530;2023-07-08T13:37:15;24.70;99.90
13426;DHT22;6785;57.918;12.530;2023-07-08T13:39:44;24.80;99.90
13426;DHT22;6785;57.918;12.530;2023-07-08T13:42:12;24.80;99.90
13426;DHT22;6785;57.918;12.530;2023-07-08T13:44:43;24.90;99.90
13426;DHT22;6785;57.918;12.530;2023-07-08T13:47:21;25.00;99.90
13426;DHT22;6785;57.918;12.530;2023-07-08T13:49:50;24.90;99.90
13426;DHT22;6785;57.918;12.530;2023-07-08T13:52:22;24.90;99.90
13426;DHT22;6785;57.918;12.530;2023-07-08T13:54:51;25.00;99.90
13426;DHT22;6785;57.918;12.530;2023-07-08T13:57:22;24.90;99.90
13426;DHT22;6785;57.918;12.530;2023-07-08T13:59:49;24.80;99.90
13426;DHT22;6785;57.918;12.530;2023-07-08T14:02:21;24.70;99.90
13426;DHT22;6785;57.918;12.530;2023-07-08T14:04:49;24.80;99.90
13426;DHT22;6785;57.918;12.530;2023-07-08T14:07:18;24.60;99.90
13426;DHT22;6785;57.918;12.530;2023-07-08T14:09:45;24.60;99.90
13426;DHT22;6785;57.918;12.530;2023-07-08T14:12:12;24.50;99.90
13426;DHT22;6785;57.918;12.530;2023-07-08T14:14:39;24.60;99.90
13426;DHT22;6785;57.918;12.530;2023-07-08T14:17:09;24.60;99.90
13426;DHT22;6785;57.918;12.530;2023-07-08T14:19:39;24.60;99.90
13426;DHT22;6785;57.918;12.530;2023-07-08T14:22:22;24.60;99.90
13426;DHT22;6785;57.918;12.530;2023-07-08T14:24:49;24.60;99.90
13426;DHT22;6785;57.918;12.530;2023-07-08T14:27:16;24.60;99.90
13426;DHT22;6785;57.918;12.530;2023-07-08T14:29:46;24.50;99.90
13426;DHT22;6785;57.918;12.530;2023-07-08T14:32:16;24.40;99.90
13426;DHT22;6785;57.918;12.530;2023-07-08T14:34:51;24.40;99.90
13426;DHT22;6785;57.918;12.530;2023-07-08T14:37:19;24.40;99.90
13426;DHT22;6785;57.918;12.530;2023-07-08T14:39:46;24.40;99.90
13426;DHT22;6785;57.918;12.530;2023-07-08T14:42:15;24.20;99.90
13426;DHT22;6785;57.918;12.530;2023-07-08T14:44:44;24.30;99.90
13426;DHT22;6785;57.918;12.530;2023-07-08T14:47:13;24.20;99.90
13426;DHT22;6785;57.918;12.530;2023-07-08T14:49:40;24.20;99.90
13426;DHT22;6785;57.918;12.530;2023-07-08T14:52:09;24.20;99.90
13426;DHT22;6785;57.918;12.530;2023-07-08T14:54:36;24.20;99.90
13426;DHT22;6785;57.918;12.530;2023-07-08T14:57:05;24.20;99.90
13426;DHT22;6785;57.918;12.530;2023-07-08T14:59:34;24.10;99.90
13426;DHT22;6785;57.918;12.530;2023-07-08T15:02:16;24.00;99.90
13426;DHT22;6785;57.918;12.530;2023-07-08T15:04:45;23.80;99.90
13426;DHT22;6785;57.918;12.530;2023-07-08T15:07:14;23.60;99.90
13426;DHT22;6785;57.918;12.530;2023-07-08T15:09:41;23.50;99.90
13426;DHT22;6785;57.918;12.530;2023-07-08T15:12:10;23.60;99.90
13426;DHT22;6785;57.918;12.530;2023-07-08T15:14:38;23.50;99.90
13426;DHT22;6785;57.918;12.530;2023-07-08T15:17:10;23.50;99.90
13426;DHT22;6785;57.918;12.530;2023-07-08T15:19:39;23.40;99.90
13426;DHT22;6785;57.918;12.530;2023-07-08T15:22:06;23.20;99.90
13426;DHT22;6785;57.918;12.530;2023-07-08T15:24:35;23.20;99.90
13426;DHT22;6785;57.918;12.530;2023-07-08T15:27:03;23.10;99.90
13426;DHT22;6785;57.918;12.530;2023-07-08T15:29:32;23.00;99.90
13426;DHT22;6785;57.918;12.530;2023-07-08T15:32:00;23.10;99.90
13426;DHT22;6785;57.918;12.530;2023-07-08T15:34:27;23.20;99.90
13426;DHT22;6785;57.918;12.530;2023-07-08T15:36:54;23.10;99.90
13426;DHT22;6785;57.918;12.530;2023-07-08T15:39:21;22.90;99.90
13426;DHT22;6785;57.918;12.530;2023-07-08T15:41:49;22.90;99.90
13426;DHT22;6785;57.918;12.530;2023-07-08T15:44:16;22.90;99.90
13426;DHT22;6785;57.918;12.530;2023-07-08T15:46:45;22.90;99.90